createdAt,value
2022-09-11T00:00:23.041Z,99534.44
2022-09-11T00:02:53.344Z,99528.94
2022-09-11T00:05:23.545Z,99521.66
2022-09-11T00:07:53.674Z,99526.13
2022-09-11T00:10:24.473Z,99528.44
2022-09-11T00:12:54.602Z,99526.63
2022-09-11T00:15:27.362Z,99520.13
2022-09-11T00:17:58.848Z,99521.28
2022-09-11T00:20:29.273Z,99521.44
2022-09-11T00:23:02.210Z,99524.25
2022-09-11T00:25:32.554Z,99520.44
2022-09-11T00:28:02.808Z,99520.25
2022-09-11T00:30:36.119Z,99517.13
2022-09-11T00:33:06.456Z,99540.88
2022-09-11T00:35:36.560Z,99531.06
2022-09-11T00:38:08.771Z,99529.06
2022-09-11T00:40:47.854Z,99528.22
2022-09-11T00:43:19.399Z,99516.59
2022-09-11T00:45:58.091Z,99520.44
2022-09-11T00:48:32.628Z,99516.13
2022-09-11T00:51:06.556Z,99516.13
2022-09-11T00:53:40.351Z,99512.47
2022-09-11T00:56:11.532Z,99493.19
2022-09-11T00:58:45.674Z,99505.69
2022-09-11T01:01:18.479Z,99503.03
2022-09-11T01:03:48.713Z,99502.84
2022-09-11T01:06:21.192Z,99498.53
2022-09-11T01:08:51.535Z,99503.34
2022-09-11T01:11:39.510Z,99503.34
2022-09-11T01:14:15.812Z,99501.00
2022-09-11T01:16:53.993Z,99499.66
2022-09-11T01:19:40.105Z,99501.66
2022-09-11T01:22:31.068Z,99491.88
2022-09-11T01:25:11.158Z,99490.69
2022-09-11T01:27:50.834Z,99471.06
2022-09-11T01:30:22.813Z,99488.00
2022-09-11T01:33:07.634Z,99487.47
2022-09-11T01:35:49.302Z,99496.28
2022-09-11T01:38:24.583Z,99493.09
2022-09-11T01:40:59.407Z,99495.09
2022-09-11T01:43:35.760Z,99488.94
2022-09-11T01:46:10.488Z,99485.47
2022-09-11T01:48:47.518Z,99488.91
2022-09-11T01:51:24.077Z,99497.22
2022-09-11T01:53:56.821Z,99504.53
2022-09-11T01:56:30.896Z,99500.88
2022-09-11T01:59:08.182Z,99501.56
2022-09-11T02:01:45.240Z,99502.03
2022-09-11T02:04:21.895Z,99509.84
2022-09-11T02:06:57.103Z,99495.41
2022-09-11T02:09:33.717Z,99491.59
2022-09-11T02:12:10.242Z,99488.13
2022-09-11T02:14:46.331Z,99481.97
2022-09-11T02:17:22.198Z,99484.44
2022-09-11T02:19:52.371Z,99492.25
2022-09-11T02:22:22.774Z,99497.22
2022-09-11T02:24:52.900Z,99502.06
2022-09-11T02:27:27.480Z,99498.22
2022-09-11T02:30:01.037Z,99494.38
2022-09-11T02:32:32.037Z,99489.72
2022-09-11T02:35:03.091Z,99497.19
2022-09-11T02:37:45.784Z,99493.34
2022-09-11T02:40:45.209Z,99494.84
2022-09-11T02:43:29.424Z,99489.84
2022-09-11T02:46:12.515Z,99483.88
2022-09-11T02:48:52.881Z,99485.38
2022-09-11T02:51:32.927Z,99481.56
2022-09-11T02:54:13.960Z,99483.22
2022-09-11T02:56:47.314Z,99485.06
2022-09-11T02:59:21.629Z,99482.72
2022-09-11T03:01:56.387Z,99481.88
2022-09-11T03:04:27.357Z,99477.56
2022-09-11T03:06:58.307Z,99479.22
2022-09-11T03:09:28.569Z,99482.19
2022-09-11T03:11:58.685Z,99480.38
2022-09-11T03:14:28.874Z,99481.38
2022-09-11T03:17:02.278Z,99483.88
2022-09-11T03:19:32.703Z,99478.72
2022-09-11T03:22:03.202Z,99484.19
2022-09-11T03:24:33.392Z,99478.31
2022-09-11T03:27:04.770Z,99478.47
2022-09-11T03:29:35.306Z,99481.13
2022-09-11T03:32:10.253Z,99486.44
2022-09-11T03:34:40.443Z,99481.81
2022-09-11T03:37:10.571Z,99483.63
2022-09-11T03:39:40.707Z,99481.81
2022-09-11T03:42:12.389Z,99483.47
2022-09-11T03:44:42.537Z,99478.16
2022-09-11T03:47:15.887Z,99480.22
2022-09-11T03:49:46.352Z,99484.06
2022-09-11T03:52:16.554Z,99479.94
2022-09-11T03:54:47.782Z,99488.22
2022-09-11T03:57:17.936Z,99491.25
2022-09-11T03:59:48.151Z,99496.19
2022-09-11T04:02:23.339Z,99505.16
2022-09-11T04:04:53.522Z,99499.19
2022-09-11T04:07:23.621Z,99496.72
2022-09-11T04:09:54.058Z,99504.31
2022-09-11T04:12:24.480Z,99506.13
2022-09-11T04:14:54.749Z,99508.00
2022-09-11T04:17:29.631Z,99517.44
2022-09-11T04:20:00.159Z,99519.25
2022-09-11T04:22:30.428Z,99511.44
2022-09-11T04:25:01.197Z,99513.63
2022-09-11T04:27:31.332Z,99509.81
2022-09-11T04:30:01.585Z,99515.97
2022-09-11T04:32:34.418Z,99515.78
2022-09-11T04:35:04.652Z,99515.63
2022-09-11T04:37:35.460Z,99515.81
2022-09-11T04:40:06.241Z,99510.88
2022-09-11T04:42:36.479Z,99521.69
2022-09-11T04:45:07.470Z,99519.03
2022-09-11T04:47:41.172Z,99525.53
2022-09-11T04:50:11.596Z,99515.09
2022-09-11T04:52:41.897Z,99507.66
2022-09-11T04:55:12.291Z,99508.78
2022-09-11T04:57:42.402Z,99520.44
2022-09-11T05:00:14.270Z,99511.97
2022-09-11T05:02:47.904Z,99510.03
2022-09-11T05:05:18.226Z,99508.19
2022-09-11T05:07:51.430Z,99501.88
2022-09-11T05:10:21.567Z,99517.34
2022-09-11T05:12:51.724Z,99508.09
2022-09-11T05:15:22.069Z,99509.56
2022-09-11T05:17:54.899Z,99509.25
2022-09-11T05:20:25.069Z,99510.22
2022-09-11T05:22:55.124Z,99509.38
2022-09-11T05:25:25.439Z,99516.19
2022-09-11T05:27:55.804Z,99519.69
2022-09-11T05:30:26.070Z,99518.03
2022-09-11T05:32:59.507Z,99518.34
2022-09-11T05:35:32.352Z,99515.88
2022-09-11T05:38:03.015Z,99526.13
2022-09-11T05:40:33.171Z,99520.31
2022-09-11T05:43:03.303Z,99518.31
2022-09-11T05:45:33.507Z,99519.47
2022-09-11T05:48:06.541Z,99516.59
2022-09-11T05:50:36.721Z,99520.75
2022-09-11T05:53:07.056Z,99531.03
2022-09-11T05:55:38.664Z,99524.69
2022-09-11T05:58:11.421Z,99528.19
2022-09-11T06:00:41.666Z,99521.88
2022-09-11T06:03:15.596Z,99521.50
2022-09-11T06:05:46.174Z,99512.00
2022-09-11T06:08:16.512Z,99510.88
2022-09-11T06:10:49.287Z,99514.44
2022-09-11T06:13:19.700Z,99521.75
2022-09-11T06:15:50.449Z,99519.53
2022-09-11T06:18:23.197Z,99513.28
2022-09-11T06:21:00.014Z,99517.41
2022-09-11T06:23:30.571Z,99503.19
2022-09-11T06:26:06.348Z,99503.72
2022-09-11T06:28:36.945Z,99497.25
2022-09-11T06:31:08.172Z,99501.94
2022-09-11T06:33:42.743Z,99505.81
2022-09-11T06:36:14.661Z,99501.22
2022-09-11T06:38:44.941Z,99502.41
2022-09-11T06:41:20.981Z,99510.19
2022-09-11T06:43:51.176Z,99500.19
2022-09-11T06:46:23.720Z,99492.13
2022-09-11T06:48:58.281Z,99504.75
2022-09-11T06:51:28.511Z,99507.31
2022-09-11T06:54:02.454Z,99508.75
2022-09-11T06:56:33.386Z,99504.94
2022-09-11T06:59:04.021Z,99513.19
2022-09-11T07:01:34.339Z,99518.34
2022-09-11T07:04:07.159Z,99511.25
2022-09-11T07:06:38.735Z,99517.69
2022-09-11T07:09:08.909Z,99520.72
2022-09-11T07:11:43.856Z,99516.22
2022-09-11T07:14:14.089Z,99513.66
2022-09-11T07:16:44.333Z,99509.34
2022-09-11T07:19:18.357Z,99506.34
2022-09-11T07:21:48.631Z,99513.88
2022-09-11T07:24:18.821Z,99510.09
2022-09-11T07:26:48.965Z,99507.56
2022-09-11T07:29:19.516Z,99498.94
2022-09-11T07:31:50.346Z,99499.53
2022-09-11T07:34:25.541Z,99489.19
2022-09-11T07:36:55.696Z,99487.16
2022-09-11T07:39:25.826Z,99487.16
2022-09-11T07:41:55.975Z,99488.38
2022-09-11T07:44:26.131Z,99481.38
2022-09-11T07:46:56.333Z,99483.31
2022-09-11T07:49:29.055Z,99483.09
2022-09-11T07:51:59.510Z,99478.66
2022-09-11T07:54:30.322Z,99479.75
2022-09-11T07:57:00.712Z,99482.78
2022-09-11T07:59:31.192Z,99488.94
2022-09-11T08:02:01.475Z,99492.16
2022-09-11T08:04:34.314Z,99495.38
2022-09-11T08:07:04.592Z,99500.47
2022-09-11T08:09:34.941Z,99502.34
2022-09-11T08:12:06.045Z,99503.75
2022-09-11T08:14:36.207Z,99506.50
2022-09-11T08:17:06.469Z,99505.13
2022-09-11T08:19:39.262Z,99510.09
2022-09-11T08:22:09.486Z,99511.56
2022-09-11T08:24:42.622Z,99497.91
2022-09-11T08:27:12.789Z,99503.38
2022-09-11T08:29:42.899Z,99513.34
2022-09-11T08:32:13.450Z,99509.97
2022-09-11T08:34:46.326Z,99505.25
2022-09-11T08:37:18.322Z,99500.28
2022-09-11T08:39:48.829Z,99497.41
2022-09-11T08:42:20.651Z,99499.28
2022-09-11T08:44:53.409Z,99492.75
2022-09-11T08:47:27.845Z,99496.88
2022-09-11T08:50:08.254Z,99487.81
2022-09-11T08:52:39.550Z,99488.41
2022-09-11T08:55:16.057Z,99497.50
2022-09-11T08:57:54.742Z,99488.31
2022-09-11T09:00:27.213Z,99494.63
2022-09-11T09:03:32.971Z,99486.75
2022-09-11T09:06:26.170Z,99492.00
2022-09-11T09:09:06.177Z,99488.53
2022-09-11T09:11:43.800Z,99498.59
2022-09-11T09:14:30.398Z,99491.16
2022-09-11T09:17:05.304Z,99488.03
2022-09-11T09:19:42.269Z,99483.91
2022-09-11T09:22:20.857Z,99488.97
2022-09-11T09:24:53.792Z,99483.34
2022-09-11T09:27:29.113Z,99488.53
2022-09-11T09:30:06.876Z,99484.94
2022-09-11T09:32:43.816Z,99465.78
2022-09-11T09:35:20.243Z,99478.69
2022-09-11T09:37:53.297Z,99477.84
2022-09-11T09:40:25.851Z,99470.31
2022-09-11T09:43:20.645Z,99469.09
2022-09-11T09:46:01.880Z,99466.06
2022-09-11T09:48:39.979Z,99463.28
2022-09-11T09:51:16.016Z,99465.63
2022-09-11T09:53:53.590Z,99465.09
2022-09-11T09:56:26.141Z,99453.56
2022-09-11T09:59:05.138Z,99464.47
2022-09-11T10:01:50.278Z,99460.78
2022-09-11T10:04:24.448Z,99454.66
2022-09-11T10:06:56.206Z,99463.19
2022-09-11T10:09:31.297Z,99468.09
2022-09-11T10:12:06.513Z,99461.25
2022-09-11T10:14:52.754Z,99465.91
2022-09-11T10:17:24.397Z,99467.84
2022-09-11T10:22:32.503Z,99455.09
2022-09-11T10:25:14.507Z,99450.47
2022-09-11T10:27:59.298Z,99454.72
2022-09-11T10:30:36.280Z,99455.81
2022-09-11T10:33:10.997Z,99445.81
2022-09-11T10:35:41.251Z,99448.44
2022-09-11T10:38:20.767Z,99457.84
2022-09-11T10:41:22.387Z,99446.78
2022-09-11T10:44:00.232Z,99446.13
2022-09-11T10:46:39.122Z,99441.66
2022-09-11T10:49:20.315Z,99438.47
2022-09-11T10:52:05.524Z,99438.44
2022-09-11T10:54:44.733Z,99446.00
2022-09-11T10:57:25.121Z,99439.72
2022-09-11T11:00:06.619Z,99430.56
2022-09-11T11:02:39.158Z,99430.28
2022-09-11T11:05:17.289Z,99416.81
2022-09-11T11:08:13.298Z,99414.09
2022-09-11T11:10:56.394Z,99416.84
2022-09-11T11:13:45.393Z,99398.19
2022-09-11T11:16:23.113Z,99405.56
2022-09-11T11:19:10.979Z,99414.97
2022-09-11T11:21:53.729Z,99409.09
2022-09-11T11:24:38.997Z,99397.78
2022-09-11T11:27:30.017Z,99398.06
2022-09-11T11:30:14.671Z,99396.19
2022-09-11T11:33:06.501Z,99401.72
2022-09-11T11:35:47.488Z,99407.72
2022-09-11T11:38:23.482Z,99402.88
2022-09-11T11:40:57.534Z,99393.84
2022-09-11T11:43:32.674Z,99391.69
2022-09-11T11:46:18.299Z,99393.41
2022-09-11T11:48:53.965Z,99390.16
2022-09-11T11:51:30.047Z,99387.13
2022-09-11T11:54:06.864Z,99387.44
2022-09-11T11:56:42.561Z,99388.47
2022-09-11T11:59:19.671Z,99385.06
2022-09-11T12:02:02.414Z,99387.44
2022-09-11T12:04:44.299Z,99391.69
2022-09-11T12:07:21.721Z,99389.31
2022-09-11T12:09:53.941Z,99384.03
2022-09-11T12:12:26.445Z,99392.63
2022-09-11T12:14:59.081Z,99380.75
2022-09-11T12:17:34.243Z,99377.00
2022-09-11T12:20:34.497Z,99385.31
2022-09-11T12:23:05.860Z,99378.00
2022-09-11T12:26:06.951Z,99376.88
2022-09-11T12:28:38.074Z,99369.53
2022-09-11T12:31:11.507Z,99365.28
2022-09-11T12:34:01.442Z,99377.97
2022-09-11T12:36:54.149Z,99379.22
2022-09-11T12:39:36.023Z,99377.00
2022-09-11T12:42:36.261Z,99390.25
2022-09-11T12:45:06.884Z,99382.72
2022-09-11T12:47:40.736Z,99370.75
2022-09-11T12:50:21.769Z,99376.28
2022-09-11T12:52:57.253Z,99367.56
2022-09-11T12:55:39.587Z,99364.47
2022-09-11T12:58:25.697Z,99367.00
2022-09-11T13:01:09.946Z,99360.91
2022-09-11T13:03:42.807Z,99368.00
2022-09-11T13:06:16.202Z,99359.53
2022-09-11T13:08:51.942Z,99361.78
2022-09-11T13:11:43.000Z,99362.09
2022-09-11T13:14:43.129Z,99374.50
2022-09-11T13:17:18.807Z,99370.69
2022-09-11T13:19:49.187Z,99373.97
2022-09-11T13:22:31.375Z,99362.81
2022-09-11T13:25:10.414Z,99351.34
2022-09-11T13:27:42.684Z,99359.03
2022-09-11T13:30:16.176Z,99358.50
2022-09-11T13:32:48.681Z,99358.50
2022-09-11T13:35:21.561Z,99350.03
2022-09-11T13:38:05.317Z,99350.28
2022-09-11T13:40:41.739Z,99346.69
2022-09-11T13:43:18.126Z,99349.03
2022-09-11T13:45:54.095Z,99348.97
2022-09-11T13:48:26.116Z,99351.41
2022-09-11T13:50:58.417Z,99342.59
2022-09-11T13:53:32.917Z,99346.63
2022-09-11T13:56:03.092Z,99347.69
2022-09-11T13:58:36.523Z,99336.50
2022-09-11T14:01:16.937Z,99340.00
2022-09-11T14:03:49.674Z,99340.00
2022-09-11T14:06:23.629Z,99355.44
2022-09-11T14:09:00.186Z,99396.81
2022-09-11T14:11:34.532Z,99390.34
2022-09-11T14:14:12.757Z,99387.97
2022-09-11T14:16:50.273Z,99388.56
2022-09-11T14:19:24.221Z,99393.44
2022-09-11T14:21:54.852Z,99388.31
2022-09-11T14:24:35.961Z,99396.03
2022-09-11T14:27:27.399Z,99401.34
2022-09-11T14:29:58.382Z,99400.00
2022-09-11T14:32:36.423Z,99401.38
2022-09-11T14:35:11.801Z,99390.06
2022-09-11T14:37:46.066Z,99390.31
2022-09-11T14:40:22.466Z,99388.38
2022-09-11T14:42:52.669Z,99388.84
2022-09-11T14:45:26.076Z,99379.72
2022-09-11T14:47:56.612Z,99369.97
2022-09-11T14:50:27.035Z,99372.81
2022-09-11T14:52:57.290Z,99373.53
2022-09-11T14:55:30.578Z,99367.78
2022-09-11T14:58:01.962Z,99371.31
2022-09-11T15:00:32.475Z,99370.50
2022-09-11T15:03:04.297Z,99371.13
2022-09-11T15:05:34.959Z,99349.00
2022-09-11T15:08:06.379Z,99357.69
2022-09-11T15:10:40.077Z,99367.38
2022-09-11T15:13:10.388Z,99362.03
2022-09-11T15:15:40.805Z,99362.06
2022-09-11T15:18:11.752Z,99362.81
2022-09-11T15:20:42.109Z,99371.28
2022-09-11T15:23:12.284Z,99361.81
2022-09-11T15:25:45.096Z,99372.50
2022-09-11T15:28:16.005Z,99381.75
2022-09-11T15:30:46.265Z,99388.56
2022-09-11T15:33:16.550Z,99391.63
2022-09-11T15:35:47.258Z,99393.66
2022-09-11T15:38:17.462Z,99390.78
2022-09-11T15:40:57.058Z,99386.84
2022-09-11T15:43:28.473Z,99392.78
2022-09-11T15:45:58.607Z,99397.84
2022-09-11T15:48:28.770Z,99395.56
2022-09-11T15:51:02.752Z,99400.25
2022-09-11T15:53:34.178Z,99400.00
2022-09-11T15:56:09.365Z,99398.94
2022-09-11T15:58:40.718Z,99410.91
2022-09-11T16:01:20.073Z,99408.19
2022-09-11T16:03:53.575Z,99402.00
2022-09-11T16:06:25.949Z,99399.28
2022-09-11T16:08:59.874Z,99406.66
2022-09-11T16:11:32.917Z,99403.94
2022-09-11T16:14:03.354Z,99404.34
2022-09-11T16:16:33.509Z,99410.47
2022-09-11T16:19:03.833Z,99405.91
2022-09-11T16:21:34.055Z,99410.19
2022-09-11T16:24:05.321Z,99406.44
2022-09-11T16:26:38.407Z,99402.31
2022-09-11T16:29:14.915Z,99415.22
2022-09-11T16:31:45.402Z,99404.44
2022-09-11T16:34:17.917Z,99410.81
2022-09-11T16:36:49.119Z,99405.81
2022-09-11T16:39:21.990Z,99403.44
2022-09-11T16:41:55.757Z,99398.41
2022-09-11T16:44:27.721Z,99405.16
2022-09-11T16:46:58.251Z,99405.13
2022-09-11T16:49:28.426Z,99401.16
2022-09-11T16:51:58.671Z,99398.88
2022-09-11T16:54:28.823Z,99390.22
2022-09-11T16:57:01.898Z,99390.22
2022-09-11T16:59:32.257Z,99385.56
2022-09-11T17:02:02.532Z,99390.72
2022-09-11T17:04:32.832Z,99397.28
2022-09-11T17:07:03.076Z,99391.56
2022-09-11T17:09:33.355Z,99398.94
2022-09-11T17:12:06.380Z,99395.16
2022-09-11T17:14:36.702Z,99399.22
2022-09-11T17:17:07.141Z,99406.97
2022-09-11T17:19:37.318Z,99406.84
2022-09-11T17:22:08.607Z,99397.31
2022-09-11T17:24:39.755Z,99403.31
2022-09-11T17:27:12.566Z,99405.16
2022-09-11T17:29:44.753Z,99411.88
2022-09-11T17:32:28.644Z,99407.53
2022-09-11T17:35:00.273Z,99401.66
2022-09-11T17:37:30.768Z,99416.84
2022-09-11T17:40:02.283Z,99417.59
2022-09-11T17:42:35.458Z,99418.34
2022-09-11T17:45:07.827Z,99415.38
2022-09-11T17:47:38.053Z,99417.13
2022-09-11T17:50:09.507Z,99411.25
2022-09-11T17:52:40.215Z,99414.66
2022-09-11T17:55:11.353Z,99414.19
2022-09-11T17:57:45.577Z,99414.72
2022-09-11T18:00:16.941Z,99414.47
2022-09-11T18:02:50.172Z,99428.81
2022-09-11T18:05:21.273Z,99415.66
2022-09-11T18:07:51.510Z,99421.19
2022-09-11T18:10:22.641Z,99423.19
2022-09-11T18:12:55.462Z,99420.91
2022-09-11T18:15:26.033Z,99431.59
2022-09-11T18:17:56.771Z,99427.63
2022-09-11T18:20:27.871Z,99432.69
2022-09-11T18:22:59.765Z,99428.44
2022-09-11T18:25:30.320Z,99429.81
2022-09-11T18:28:03.817Z,99435.00
2022-09-11T18:30:34.436Z,99430.91
2022-09-11T18:33:08.896Z,99434.38
2022-09-11T18:35:42.113Z,99430.06
2022-09-11T18:38:12.977Z,99439.91
2022-09-11T18:40:43.266Z,99433.34
2022-09-11T18:43:18.378Z,99440.00
2022-09-11T18:45:49.016Z,99436.13
2022-09-11T18:48:22.163Z,99437.63
2022-09-11T18:50:54.056Z,99441.41
2022-09-11T18:53:26.120Z,99445.09
2022-09-11T18:56:02.011Z,99444.72
2022-09-11T18:58:36.436Z,99437.09
2022-09-11T19:01:09.553Z,99438.56
2022-09-11T19:03:42.298Z,99437.38
2022-09-11T19:06:15.182Z,99443.38
2022-09-11T19:08:47.289Z,99442.72
2022-09-11T19:11:21.089Z,99444.38
2022-09-11T19:13:56.824Z,99442.91
2022-09-11T19:16:27.176Z,99439.75
2022-09-11T19:18:57.491Z,99443.06
2022-09-11T19:21:28.484Z,99442.59
2022-09-11T19:24:00.851Z,99449.13
2022-09-11T19:26:33.153Z,99442.66
2022-09-11T19:29:06.362Z,99436.75
2022-09-11T19:31:36.705Z,99454.28
2022-09-11T19:34:06.983Z,99448.31
2022-09-11T19:36:41.202Z,99452.81
2022-09-11T19:39:11.405Z,99459.31
2022-09-11T19:41:45.281Z,99462.69
2022-09-11T19:44:18.346Z,99458.56
2022-09-11T19:46:50.119Z,99455.75
2022-09-11T19:49:20.631Z,99459.78
2022-09-11T19:51:50.789Z,99450.47
2022-09-11T19:54:21.866Z,99460.47
2022-09-11T19:56:52.111Z,99459.47
2022-09-11T19:59:24.827Z,99460.00
2022-09-11T20:01:55.167Z,99455.00
2022-09-11T20:04:25.486Z,99460.34
2022-09-11T20:06:55.678Z,99456.22
2022-09-11T20:09:33.057Z,99459.06
2022-09-11T20:12:05.392Z,99465.03
2022-09-11T20:14:42.294Z,99461.88
2022-09-11T20:17:13.288Z,99474.56
2022-09-11T20:19:44.905Z,99458.91
2022-09-11T20:22:15.148Z,99462.94
2022-09-11T20:24:45.344Z,99458.78
2022-09-11T20:27:15.516Z,99461.44
2022-09-11T20:29:48.250Z,99458.31
2022-09-11T20:32:19.437Z,99460.97
2022-09-11T20:34:49.618Z,99451.00
2022-09-11T20:37:20.095Z,99457.34
2022-09-11T20:39:50.619Z,99457.34
2022-09-11T20:42:20.958Z,99458.34
2022-09-11T20:44:53.612Z,99454.34
2022-09-11T20:47:23.798Z,99455.88
2022-09-11T20:49:53.987Z,99452.72
2022-09-11T20:52:24.164Z,99459.91
2022-09-11T20:54:54.576Z,99463.09
2022-09-11T20:57:27.873Z,99472.41
2022-09-11T21:00:00.966Z,99471.25
2022-09-11T21:02:31.191Z,99476.56
2022-09-11T21:05:05.096Z,99474.44
2022-09-11T21:07:35.475Z,99484.25
2022-09-11T21:10:05.970Z,99487.44
2022-09-11T21:12:36.796Z,99489.44
2022-09-11T21:15:10.767Z,99496.56
2022-09-11T21:17:40.938Z,99493.09
2022-09-11T21:20:12.687Z,99494.41
2022-09-11T21:22:42.870Z,99494.56
2022-09-11T21:25:13.084Z,99493.41
2022-09-11T21:27:43.225Z,99504.38
2022-09-11T21:30:16.746Z,99503.22
2022-09-11T21:32:46.819Z,99506.06
2022-09-11T21:35:17.153Z,99504.38
2022-09-11T21:37:48.586Z,99511.56
2022-09-11T21:40:18.764Z,99510.06
2022-09-11T21:42:52.002Z,99512.56
2022-09-11T21:45:24.666Z,99507.72
2022-09-11T21:47:55.136Z,99517.53
2022-09-11T21:50:25.328Z,99521.19
2022-09-11T21:52:56.220Z,99513.53
2022-09-11T21:55:28.186Z,99518.69
2022-09-11T21:57:58.687Z,99519.03
2022-09-11T22:00:31.419Z,99523.00
2022-09-11T22:03:01.784Z,99524.34
2022-09-11T22:05:32.543Z,99519.84
2022-09-11T22:08:02.829Z,99527.34
2022-09-11T22:10:32.984Z,99524.34
2022-09-11T22:13:03.641Z,99524.66
2022-09-11T22:15:36.391Z,99517.69
2022-09-11T22:18:06.802Z,99523.50
2022-09-11T22:20:37.009Z,99519.69
2022-09-11T22:23:10.700Z,99517.34
2022-09-11T22:25:41.076Z,99514.69
2022-09-11T22:28:11.544Z,99507.25
2022-09-11T22:30:48.757Z,99526.66
2022-09-11T22:33:18.909Z,99526.16
2022-09-11T22:35:49.650Z,99531.81
2022-09-11T22:38:20.156Z,99534.47
2022-09-11T22:40:55.457Z,99527.84
2022-09-11T22:43:25.655Z,99531.50
2022-09-11T22:45:58.477Z,99533.47
2022-09-11T22:48:28.887Z,99525.03
2022-09-11T22:50:59.614Z,99526.69
2022-09-11T22:53:30.566Z,99534.31
2022-09-11T22:56:00.725Z,99534.97
2022-09-11T22:58:31.855Z,99528.66
2022-09-11T23:01:06.038Z,99532.31
2022-09-11T23:03:39.156Z,99523.19
2022-09-11T23:06:21.943Z,99524.34
2022-09-11T23:08:52.748Z,99529.66
2022-09-11T23:11:23.256Z,99526.16
2022-09-11T23:13:53.872Z,99521.69
2022-09-11T23:16:28.908Z,99521.38
2022-09-11T23:19:00.738Z,99529.16
2022-09-11T23:21:33.098Z,99536.66
2022-09-11T23:24:03.593Z,99532.31
2022-09-11T23:26:33.882Z,99534.28
2022-09-11T23:29:04.277Z,99548.88
2022-09-11T23:31:37.659Z,99547.06
2022-09-11T23:34:11.147Z,99556.03
2022-09-11T23:36:41.320Z,99558.19
2022-09-11T23:39:14.571Z,99560.34
2022-09-11T23:41:44.731Z,99552.34
2022-09-11T23:44:14.862Z,99562.16
2022-09-11T23:46:47.817Z,99556.84
2022-09-11T23:49:17.977Z,99563.66
2022-09-11T23:51:50.390Z,99555.84
2022-09-11T23:54:20.532Z,99563.00
2022-09-11T23:56:50.669Z,99546.53
2022-09-11T23:59:21.112Z,99548.00
